Time;durP1;ratioP1;P1;durP2;ratioP2;P2;SDS_P1;SDS_P2;PMS_P1;PMS_P2;Temp;Humidity;BMP_temperature;BMP_pressure;BME280_temperature;BME280_humidity;BME280_pressure;Samples;Min_cycle;Max_cycle;Signal;HPM_P1;HPM_P2
2022/04/21 00:00:38;;;;;;;;;;;20.70;29.70;;;;;;8364066;28;19913;-45
2022/04/21 00:04:38;;;;;;;;;;;20.70;29.70;;;;;;8364618;28;19920;-46
2022/04/21 00:08:39;;;;;;;;;;;20.70;29.80;;;;;;8363427;28;19917;-46
2022/04/21 00:12:39;;;;;;;;;;;20.60;29.70;;;;;;8363653;28;19924;-46
2022/04/21 00:16:40;;;;;;;;;;;20.60;29.70;;;;;;8363864;28;19959;-45
2022/04/21 00:20:40;;;;;;;;;;;20.60;29.70;;;;;;8363106;28;20008;-45
2022/04/21 00:24:41;;;;;;;;;;;20.60;30.10;;;;;;8364034;28;19917;-45
2022/04/21 00:28:41;;;;;;;;;;;20.60;29.70;;;;;;8363582;28;19916;-46
2022/04/21 00:32:42;;;;;;;;;;;20.60;29.80;;;;;;8362719;28;19936;-45
2022/04/21 00:36:43;;;;;;;;;;;20.60;29.70;;;;;;8363532;28;19936;-45
2022/04/21 00:40:43;;;;;;;;;;;20.60;29.80;;;;;;8363130;28;19921;-47
2022/04/21 00:44:44;;;;;;;;;;;20.50;29.70;;;;;;8362964;28;19917;-46
2022/04/21 00:48:45;;;;;;;;;;;20.60;29.80;;;;;;8363076;28;19921;-47
2022/04/21 00:52:46;;;;;;;;;;;20.50;29.70;;;;;;8362818;28;19925;-48
2022/04/21 00:56:47;;;;;;;;;;;20.50;29.80;;;;;;8362496;28;19966;-47
2022/04/21 01:00:47;;;;;;;;;;;20.50;29.80;;;;;;8362606;28;20378;-45
2022/04/21 01:04:48;;;;;;;;;;;20.50;29.80;;;;;;8369560;28;19928;-48
2022/04/21 01:08:49;;;;;;;;;;;20.50;29.80;;;;;;8369076;28;20365;-46
2022/04/21 01:12:50;;;;;;;;;;;20.50;29.80;;;;;;8369638;28;19967;-45
2022/04/21 01:16:50;;;;;;;;;;;20.50;29.80;;;;;;8369358;28;20270;-46
2022/04/21 01:20:51;;;;;;;;;;;20.40;29.80;;;;;;8369056;28;19970;-46
2022/04/21 01:24:51;;;;;;;;;;;20.40;29.80;;;;;;8369353;28;19916;-46
2022/04/21 01:28:52;;;;;;;;;;;20.40;29.80;;;;;;8368825;28;19924;-45
2022/04/21 01:32:53;;;;;;;;;;;20.40;29.70;;;;;;8368171;28;19925;-45
2022/04/21 01:41:12;;;;;;;;;;;20.40;29.80;;;;;;8369629;28;19986;-46
2022/04/21 01:45:13;;;;;;;;;;;20.40;29.80;;;;;;8386259;28;20373;-47
2022/04/21 01:49:13;;;;;;;;;;;20.40;29.70;;;;;;8349096;28;19917;-46
2022/04/21 01:53:14;;;;;;;;;;;20.40;29.70;;;;;;8335087;28;19929;-45
2022/04/21 01:57:14;;;;;;;;;;;20.40;29.80;;;;;;8334404;28;19925;-46
2022/04/21 02:01:15;;;;;;;;;;;20.40;29.80;;;;;;8335318;28;19967;-45
2022/04/21 02:05:15;;;;;;;;;;;20.30;29.80;;;;;;8334925;28;19921;-45
2022/04/21 02:09:16;;;;;;;;;;;20.30;29.80;;;;;;8334047;28;19921;-46
2022/04/21 02:13:16;;;;;;;;;;;20.30;29.70;;;;;;8334337;28;19925;-45
2022/04/21 02:17:17;;;;;;;;;;;20.30;29.80;;;;;;8334294;28;20014;-46
2022/04/21 02:21:17;;;;;;;;;;;20.30;29.80;;;;;;8334018;28;19943;-47
2022/04/21 02:25:18;;;;;;;;;;;20.20;29.70;;;;;;8334159;28;19917;-45
2022/04/21 02:29:18;;;;;;;;;;;20.20;29.70;;;;;;8333875;28;19960;-46
2022/04/21 02:33:20;;;;;;;;;;;20.20;29.70;;;;;;8333321;28;19925;-47
2022/04/21 02:37:21;;;;;;;;;;;20.20;29.70;;;;;;8334069;28;19968;-46
2022/04/21 02:41:22;;;;;;;;;;;20.20;29.70;;;;;;8333950;28;20377;-46
2022/04/21 02:45:23;;;;;;;;;;;20.20;29.80;;;;;;8365493;28;19971;-46
2022/04/21 02:49:23;;;;;;;;;;;20.10;29.70;;;;;;8366628;28;19917;-47
2022/04/21 02:57:20;;;;;;;;;;;20.20;29.80;;;;;;8366212;28;19924;-47
2022/04/21 02:57:44;;;;;;;;;;;20.10;29.70;;;;;;8365774;28;20326;-45
2022/04/21 03:01:45;;;;;;;;;;;20.10;29.80;;;;;;8365957;28;19921;-47
2022/04/21 03:05:45;;;;;;;;;;;20.10;29.80;;;;;;8365526;28;19921;-47
2022/04/21 03:09:46;;;;;;;;;;;20.10;29.80;;;;;;8365804;28;19917;-46
2022/04/21 03:13:46;;;;;;;;;;;20.10;29.80;;;;;;8365688;28;20309;-45
2022/04/21 03:17:47;;;;;;;;;;;20.10;29.80;;;;;;8364990;28;20023;-46
2022/04/21 03:26:07;;;;;;;;;;;20.10;29.80;;;;;;8364873;28;19970;-45
2022/04/21 03:30:10;;;;;;;;;;;20.10;29.80;;;;;;8364705;28;19917;-46
2022/04/21 03:34:15;;;;;;;;;;;20.00;29.80;;;;;;8364900;28;19948;-47
2022/04/21 03:38:16;;;;;;;;;;;20.00;29.90;;;;;;8364925;28;19924;-46
2022/04/21 03:42:31;;;;;;;;;;;20.00;29.90;;;;;;8364470;28;19917;-47
2022/04/21 03:46:32;;;;;;;;;;;20.00;29.90;;;;;;8364848;28;19917;-45
2022/04/21 03:50:34;;;;;;;;;;;20.00;29.90;;;;;;8363971;28;19924;-47
2022/04/21 03:54:34;;;;;;;;;;;20.00;29.90;;;;;;8364478;28;19931;-46
2022/04/21 03:58:34;;;;;;;;;;;20.00;29.90;;;;;;8364143;28;20360;-46
2022/04/21 04:02:35;;;;;;;;;;;20.00;29.90;;;;;;8347500;28;19967;-47
2022/04/21 04:10:54;;;;;;;;;;;20.00;30.00;;;;;;8335286;28;20432;-45
2022/04/21 04:14:55;;;;;;;;;;;19.90;29.90;;;;;;8330271;28;19925;-46
2022/04/21 04:18:55;;;;;;;;;;;19.90;29.90;;;;;;8330678;28;20286;-47
2022/04/21 04:22:56;;;;;;;;;;;19.90;29.90;;;;;;8330478;28;19917;-47
2022/04/21 04:26:56;;;;;;;;;;;19.90;30.00;;;;;;8330254;28;19918;-45
2022/04/21 04:30:57;;;;;;;;;;;19.90;29.90;;;;;;8330508;28;19960;-47
2022/04/21 04:34:57;;;;;;;;;;;19.90;29.90;;;;;;8330330;28;19971;-47
2022/04/21 04:38:57;;;;;;;;;;;19.90;29.90;;;;;;8329752;28;19918;-46
2022/04/21 04:42:58;;;;;;;;;;;19.90;29.90;;;;;;8330243;28;19921;-45
2022/04/21 04:46:58;;;;;;;;;;;19.90;29.90;;;;;;8330292;28;19917;-48
2022/04/21 04:51:00;;;;;;;;;;;19.80;29.90;;;;;;8329630;28;19940;-47
2022/04/21 04:55:00;;;;;;;;;;;19.80;29.90;;;;;;8329976;28;20000;-47
2022/04/21 04:59:01;;;;;;;;;;;19.90;29.90;;;;;;8330005;28;20012;-46
2022/04/21 05:03:01;;;;;;;;;;;19.80;29.90;;;;;;8329287;28;19928;-46
2022/04/21 05:07:02;;;;;;;;;;;19.80;29.90;;;;;;8330090;28;19921;-46
2022/04/21 05:11:03;;;;;;;;;;;19.90;29.90;;;;;;8329596;28;19956;-45
2022/04/21 05:15:04;;;;;;;;;;;19.80;29.90;;;;;;8329206;28;20012;-45
2022/04/21 05:19:04;;;;;;;;;;;19.80;29.90;;;;;;8329916;28;19917;-44
2022/04/21 05:23:05;;;;;;;;;;;19.80;29.80;;;;;;8329494;28;19975;-51
2022/04/21 05:27:06;;;;;;;;;;;19.80;29.90;;;;;;8329314;28;20385;-46
2022/04/21 05:31:07;;;;;;;;;;;19.80;29.90;;;;;;8329352;28;20341;-46
2022/04/21 05:35:08;;;;;;;;;;;19.80;29.90;;;;;;8329469;28;20101;-44
2022/04/21 05:39:09;;;;;;;;;;;19.80;29.90;;;;;;8328907;28;20223;-45
2022/04/21 05:43:11;;;;;;;;;;;19.80;29.90;;;;;;8329678;28;19917;-44
2022/04/21 05:47:12;;;;;;;;;;;19.70;29.90;;;;;;8330459;28;20024;-44
2022/04/21 05:51:12;;;;;;;;;;;19.80;30.00;;;;;;8334683;28;19925;-45
2022/04/21 05:55:15;;;;;;;;;;;19.70;29.90;;;;;;8335201;28;20016;-44
2022/04/21 05:59:15;;;;;;;;;;;19.80;29.90;;;;;;8334883;28;20313;-46
2022/04/21 06:03:16;;;;;;;;;;;19.80;29.80;;;;;;8334236;28;19921;-46
2022/04/21 06:07:16;;;;;;;;;;;19.80;29.80;;;;;;8335026;28;19959;-44
2022/04/21 06:11:17;;;;;;;;;;;19.80;29.80;;;;;;8334682;28;19917;-44
2022/04/21 06:15:18;;;;;;;;;;;19.90;29.80;;;;;;8315594;28;21976;-44
2022/04/21 06:19:18;;;;;;;;;;;19.80;29.70;;;;;;8334347;28;19917;-45
2022/04/21 06:23:20;;;;;;;;;;;19.90;29.70;;;;;;8334171;28;19975;-46
2022/04/21 06:27:21;;;;;;;;;;;19.90;29.70;;;;;;8333853;28;19917;-46
2022/04/21 06:31:21;;;;;;;;;;;19.90;29.60;;;;;;8334106;28;20351;-45
2022/04/21 06:35:22;;;;;;;;;;;19.90;29.60;;;;;;8333692;28;20307;-44
2022/04/21 06:39:22;;;;;;;;;;;19.90;29.50;;;;;;8333215;28;20294;-46
2022/04/21 06:52:01;;;;;;;;;;;20.10;29.40;;;;;;8338967;28;19923;-45
2022/04/21 06:56:03;;;;;;;;;;;20.30;29.20;;;;;;8332934;28;19925;-45
2022/04/21 07:00:03;;;;;;;;;;;20.50;29.00;;;;;;8331887;28;19921;-46
2022/04/21 07:04:04;;;;;;;;;;;20.50;28.90;;;;;;8333020;28;19966;-47
2022/04/21 07:08:04;;;;;;;;;;;20.60;28.80;;;;;;8332911;28;19983;-45
2022/04/21 07:12:05;;;;;;;;;;;20.60;28.70;;;;;;8332258;28;19921;-47
2022/04/21 07:16:06;;;;;;;;;;;20.60;28.70;;;;;;8332632;28;19944;-46
2022/04/21 07:20:08;;;;;;;;;;;20.60;28.70;;;;;;8332561;28;20020;-45
2022/04/21 07:24:08;;;;;;;;;;;20.50;28.80;;;;;;8331674;28;19917;-49
2022/04/21 07:28:09;;;;;;;;;;;20.50;29.00;;;;;;8332530;28;19918;-44
2022/04/21 07:32:10;;;;;;;;;;;20.50;29.00;;;;;;8332050;28;19921;-49
2022/04/21 07:36:11;;;;;;;;;;;20.50;29.00;;;;;;8331294;28;20319;-44
2022/04/21 07:40:11;;;;;;;;;;;20.60;29.20;;;;;;8332320;28;19924;-45
2022/04/21 07:44:12;;;;;;;;;;;20.50;29.20;;;;;;8331815;28;19917;-46
2022/04/21 07:48:12;;;;;;;;;;;20.50;29.10;;;;;;8313678;28;19926;-45
2022/04/21 07:57:01;;;;;;;;;;;20.50;29.20;;;;;;8324328;28;19931;-44
2022/04/21 08:01:01;;;;;;;;;;;20.40;29.30;;;;;;8331246;28;19917;-46
2022/04/21 08:05:02;;;;;;;;;;;20.40;29.30;;;;;;8330960;28;19921;-46
2022/04/21 08:09:02;;;;;;;;;;;20.40;29.40;;;;;;8330331;28;19917;-45
2022/04/21 08:13:03;;;;;;;;;;;20.30;29.40;;;;;;8330705;28;19933;-45
2022/04/21 08:17:04;;;;;;;;;;;20.30;29.40;;;;;;8330698;28;19917;-44
2022/04/21 08:21:05;;;;;;;;;;;20.30;29.50;;;;;;8330131;28;19917;-46
2022/04/21 08:33:44;;;;;;;;;;;20.30;29.60;;;;;;8330216;28;19931;-47
2022/04/21 08:37:45;;;;;;;;;;;20.30;29.60;;;;;;8330251;28;19925;-45
2022/04/21 08:41:47;;;;;;;;;;;20.30;29.60;;;;;;8329761;28;19922;-48
2022/04/21 08:45:49;;;;;;;;;;;20.30;29.60;;;;;;8330136;28;19924;-45
2022/04/21 08:49:52;;;;;;;;;;;20.30;29.70;;;;;;8330214;28;19924;-47
2022/04/21 08:53:54;;;;;;;;;;;20.30;29.60;;;;;;8329668;28;19929;-46
2022/04/21 08:57:56;;;;;;;;;;;20.40;29.70;;;;;;8330129;28;19916;-46
2022/04/21 09:01:58;;;;;;;;;;;20.40;29.70;;;;;;8330031;28;20361;-47
2022/04/21 09:06:00;;;;;;;;;;;20.40;29.70;;;;;;8329161;28;19921;-45
2022/04/21 09:10:01;;;;;;;;;;;20.40;29.70;;;;;;8330075;28;19941;-47
2022/04/21 09:14:02;;;;;;;;;;;20.40;29.70;;;;;;8329730;28;20059;-49
2022/04/21 09:18:10;;;;;;;;;;;20.40;29.70;;;;;;8329197;28;19917;-45
2022/04/21 09:22:10;;;;;;;;;;;20.50;29.70;;;;;;8330804;28;19951;-45
2022/04/21 09:26:15;;;;;;;;;;;20.40;29.70;;;;;;8335868;28;20384;-45
2022/04/21 09:30:16;;;;;;;;;;;20.40;29.70;;;;;;8335300;28;19949;-44
2022/04/21 09:34:16;;;;;;;;;;;20.50;29.70;;;;;;8335879;28;20414;-44
2022/04/21 09:38:18;;;;;;;;;;;20.40;29.70;;;;;;8335758;28;19917;-49
2022/04/21 09:42:24;;;;;;;;;;;20.50;29.70;;;;;;8334960;28;19976;-45
2022/04/21 09:46:24;;;;;;;;;;;20.50;29.80;;;;;;8335758;28;19924;-45
2022/04/21 09:50:25;;;;;;;;;;;20.50;29.70;;;;;;8335160;28;20043;-45
2022/04/21 09:54:29;;;;;;;;;;;20.50;29.70;;;;;;8334623;28;20318;-44
2022/04/21 09:58:35;;;;;;;;;;;20.60;29.70;;;;;;8335459;28;19957;-45
2022/04/21 10:02:37;;;;;;;;;;;20.60;29.80;;;;;;8339333;28;19920;-44
2022/04/21 10:06:38;;;;;;;;;;;20.60;29.70;;;;;;8367840;28;19917;-49
2022/04/21 10:10:39;;;;;;;;;;;20.60;29.70;;;;;;8367594;28;19917;-45
2022/04/21 10:14:39;;;;;;;;;;;20.60;29.70;;;;;;8367116;28;19924;-46
2022/04/21 10:18:40;;;;;;;;;;;20.70;29.70;;;;;;8367570;28;19917;-45
2022/04/21 10:22:41;;;;;;;;;;;20.70;29.70;;;;;;8367383;28;20364;-44
2022/04/21 10:26:42;;;;;;;;;;;20.70;29.70;;;;;;8366708;28;19917;-46
2022/04/21 10:30:45;;;;;;;;;;;20.70;29.70;;;;;;8366863;28;19921;-46
2022/04/21 10:34:46;;;;;;;;;;;20.70;29.70;;;;;;8366835;28;19931;-45
2022/04/21 10:39:06;;;;;;;;;;;20.70;30.00;;;;;;8366416;28;19920;-46
2022/04/21 10:43:07;;;;;;;;;;;20.70;29.60;;;;;;8366349;28;19923;-46
2022/04/21 10:47:26;;;;;;;;;;;20.80;29.70;;;;;;8366460;28;19923;-45
2022/04/21 10:51:41;;;;;;;;;;;20.80;29.60;;;;;;8366089;28;19925;-45
2022/04/21 11:00:03;;;;;;;;;;;20.80;29.70;;;;;;8365795;28;19963;-47
2022/04/21 11:04:08;;;;;;;;;;;20.90;29.70;;;;;;8366240;28;19927;-44
2022/04/21 11:08:12;;;;;;;;;;;20.90;29.60;;;;;;8365968;28;19923;-45
2022/04/21 11:12:14;;;;;;;;;;;20.90;29.60;;;;;;8365201;28;19917;-45
2022/04/21 11:16:33;;;;;;;;;;;20.90;29.60;;;;;;8365334;28;19924;-45
2022/04/21 11:20:33;;;;;;;;;;;20.90;29.60;;;;;;8364933;28;20382;-46
2022/04/21 11:24:52;;;;;;;;;;;20.90;29.60;;;;;;8365886;28;19917;-47
2022/04/21 11:28:53;;;;;;;;;;;20.90;29.60;;;;;;8365059;28;19991;-45
2022/04/21 11:32:53;;;;;;;;;;;21.00;29.60;;;;;;8364421;28;19979;-44
2022/04/21 11:36:56;;;;;;;;;;;21.00;29.60;;;;;;8365179;28;19924;-45
2022/04/21 11:41:02;;;;;;;;;;;21.00;29.60;;;;;;8364837;28;19979;-45
2022/04/21 11:45:02;;;;;;;;;;;21.00;29.50;;;;;;8363929;28;19916;-46
2022/04/21 11:49:03;;;;;;;;;;;21.10;29.60;;;;;;8364764;28;19917;-45
2022/04/21 11:53:11;;;;;;;;;;;21.10;29.50;;;;;;8364191;28;19932;-48
2022/04/21 11:57:11;;;;;;;;;;;21.10;29.50;;;;;;8363832;28;19917;-47
2022/04/21 12:09:51;;;;;;;;;;;21.10;29.40;;;;;;8367004;28;19924;-47
2022/04/21 12:13:52;;;;;;;;;;;21.20;29.50;;;;;;8363868;28;19952;-45
2022/04/21 12:17:57;;;;;;;;;;;21.20;29.40;;;;;;8363447;28;19924;-46
2022/04/21 12:21:59;;;;;;;;;;;21.20;29.50;;;;;;8363692;28;19971;-44
2022/04/21 12:26:00;;;;;;;;;;;21.30;29.50;;;;;;8363514;28;19924;-48
2022/04/21 12:30:03;;;;;;;;;;;21.30;29.40;;;;;;8363043;28;19917;-46
2022/04/21 12:34:03;;;;;;;;;;;21.30;29.50;;;;;;8363364;28;20488;-49
2022/04/21 12:42:23;;;;;;;;;;;21.30;29.40;;;;;;8362747;28;20285;-46
2022/04/21 12:46:27;;;;;;;;;;;21.30;29.50;;;;;;8363035;28;19917;-45
2022/04/21 12:50:27;;;;;;;;;;;21.30;29.50;;;;;;8363308;28;20270;-43
2022/04/21 12:54:28;;;;;;;;;;;21.40;29.50;;;;;;8362360;28;19968;-44
2022/04/21 12:58:31;;;;;;;;;;;21.40;29.50;;;;;;8366158;28;20385;-49
2022/04/21 13:02:31;;;;;;;;;;;21.40;29.50;;;;;;8368915;28;20051;-45
2022/04/21 13:06:32;;;;;;;;;;;21.40;29.50;;;;;;8355532;28;20333;-49
2022/04/21 13:10:32;;;;;;;;;;;21.40;29.50;;;;;;8336534;28;19990;-46
2022/04/21 13:14:32;;;;;;;;;;;21.40;29.50;;;;;;8335726;28;20351;-44
2022/04/21 13:18:34;;;;;;;;;;;21.40;29.50;;;;;;8336054;28;20378;-44
2022/04/21 13:22:35;;;;;;;;;;;21.40;29.50;;;;;;8335837;28;19996;-45
2022/04/21 13:26:35;;;;;;;;;;;21.40;29.50;;;;;;8335327;28;19921;-44
2022/04/21 13:30:36;;;;;;;;;;;21.40;29.90;;;;;;8336015;28;19921;-44
2022/04/21 13:34:36;;;;;;;;;;;21.40;29.50;;;;;;8335554;28;19948;-45
2022/04/21 13:38:37;;;;;;;;;;;21.50;29.50;;;;;;8335076;28;19923;-46
2022/04/21 13:42:37;;;;;;;;;;;21.50;29.50;;;;;;8335436;28;19963;-49
2022/04/21 13:46:38;;;;;;;;;;;21.50;29.60;;;;;;8335327;28;19917;-45
2022/04/21 13:50:38;;;;;;;;;;;21.50;29.60;;;;;;8334872;28;20329;-50
2022/04/21 13:54:40;;;;;;;;;;;21.50;29.60;;;;;;8335147;28;19925;-47
2022/04/21 13:58:40;;;;;;;;;;;21.50;29.60;;;;;;8335278;28;19917;-46
2022/04/21 14:02:40;;;;;;;;;;;21.50;29.60;;;;;;8334314;28;19924;-46
2022/04/21 14:06:42;;;;;;;;;;;21.50;29.60;;;;;;8334580;28;19917;-45
2022/04/21 14:10:44;;;;;;;;;;;21.50;29.60;;;;;;8334291;28;19928;-45
2022/04/21 14:14:45;;;;;;;;;;;21.50;29.60;;;;;;8333921;28;20366;-45
2022/04/21 14:18:46;;;;;;;;;;;21.50;29.60;;;;;;8334488;28;19927;-49
2022/04/21 14:22:47;;;;;;;;;;;21.50;29.60;;;;;;8334302;28;20340;-45
2022/04/21 14:26:47;;;;;;;;;;;21.50;29.60;;;;;;8333575;28;19975;-48
2022/04/21 14:30:48;;;;;;;;;;;21.50;29.60;;;;;;8334128;28;19917;-44
2022/04/21 14:34:48;;;;;;;;;;;21.50;29.60;;;;;;8333964;28;19925;-45
2022/04/21 14:47:27;;;;;;;;;;;21.50;29.60;;;;;;8333549;28;19971;-45
2022/04/21 14:51:29;;;;;;;;;;;21.50;29.60;;;;;;8333243;28;19913;-50
2022/04/21 14:55:31;;;;;;;;;;;21.60;30.00;;;;;;8333565;28;19984;-45
2022/04/21 14:59:32;;;;;;;;;;;21.60;29.70;;;;;;8332608;28;19952;-50
2022/04/21 15:03:36;;;;;;;;;;;21.60;29.70;;;;;;8333031;28;19991;-47
2022/04/21 15:07:37;;;;;;;;;;;21.60;29.60;;;;;;8332993;28;19921;-49
2022/04/21 15:11:41;;;;;;;;;;;21.60;29.60;;;;;;8332085;28;20035;-47
2022/04/21 15:15:41;;;;;;;;;;;21.60;29.70;;;;;;8332544;28;20059;-47
2022/04/21 15:19:46;;;;;;;;;;;21.60;29.70;;;;;;8331489;28;20274;-46
2022/04/21 15:23:47;;;;;;;;;;;21.60;29.70;;;;;;8331751;28;19971;-45
2022/04/21 15:27:47;;;;;;;;;;;21.60;29.70;;;;;;8332189;28;19921;-48
2022/04/21 15:31:47;;;;;;;;;;;21.60;29.70;;;;;;8332020;28;19913;-50
2022/04/21 15:35:48;;;;;;;;;;;21.60;29.70;;;;;;8331590;28;19921;-46
2022/04/21 15:39:49;;;;;;;;;;;21.60;29.70;;;;;;8331835;28;20369;-47
2022/04/21 15:43:50;;;;;;;;;;;21.60;29.70;;;;;;8331871;28;19917;-47
2022/04/21 15:47:51;;;;;;;;;;;21.60;29.70;;;;;;8331048;28;19917;-45
2022/04/21 15:51:51;;;;;;;;;;;21.60;29.60;;;;;;8331703;28;19913;-47
2022/04/21 16:00:11;;;;;;;;;;;21.60;29.70;;;;;;8330982;28;19924;-48
2022/04/21 16:04:12;;;;;;;;;;;21.60;29.70;;;;;;8331337;28;20259;-47
2022/04/21 16:08:12;;;;;;;;;;;21.60;29.70;;;;;;8330876;28;19924;-48
2022/04/21 16:12:13;;;;;;;;;;;21.60;29.70;;;;;;8356796;28;20059;-46
2022/04/21 16:16:14;;;;;;;;;;;21.60;29.70;;;;;;8363843;28;19975;-45
2022/04/21 16:20:14;;;;;;;;;;;21.60;29.70;;;;;;8363575;28;19917;-49
2022/04/21 16:24:14;;;;;;;;;;;21.60;29.70;;;;;;8363078;28;19927;-45
2022/04/21 16:28:15;;;;;;;;;;;21.60;29.80;;;;;;8363572;28;20055;-44
2022/04/21 16:32:15;;;;;;;;;;;21.60;29.70;;;;;;8363036;28;19916;-49
2022/04/21 16:36:16;;;;;;;;;;;21.60;29.70;;;;;;8363120;28;19924;-44
2022/04/21 16:40:16;;;;;;;;;;;21.60;29.80;;;;;;8363004;28;19927;-48
2022/04/21 16:44:17;;;;;;;;;;;21.60;29.80;;;;;;8363102;28;19920;-45
2022/04/21 16:48:17;;;;;;;;;;;21.50;29.70;;;;;;8362355;28;20293;-45
2022/04/21 16:52:18;;;;;;;;;;;21.50;29.80;;;;;;8362871;28;20004;-45
2022/04/21 16:56:18;;;;;;;;;;;21.50;30.10;;;;;;8363114;28;19921;-46
2022/04/21 17:02:54;;;;;;;;;;;21.60;29.80;;;;;;8337538;28;19921;-45
2022/04/21 17:04:40;;;;;;;;;;;21.60;29.80;;;;;;8329659;28;19992;-45
2022/04/21 17:08:41;;;;;;;;;;;21.50;29.80;;;;;;8329252;28;19921;-44
2022/04/21 17:12:41;;;;;;;;;;;21.50;29.80;;;;;;8329423;28;19925;-44
2022/04/21 17:16:44;;;;;;;;;;;21.50;29.80;;;;;;8329607;28;20433;-44
2022/04/21 17:20:44;;;;;;;;;;;21.50;29.80;;;;;;8329130;28;19917;-45
2022/04/21 17:24:44;;;;;;;;;;;21.50;29.80;;;;;;8329468;28;19917;-45
2022/04/21 17:28:45;;;;;;;;;;;21.50;29.80;;;;;;8329324;28;20378;-45
2022/04/21 17:32:45;;;;;;;;;;;21.50;29.80;;;;;;8328847;28;19917;-46
2022/04/21 17:36:46;;;;;;;;;;;21.50;29.80;;;;;;8329817;28;19940;-45
2022/04/21 17:40:46;;;;;;;;;;;21.50;29.80;;;;;;8329253;28;19921;-46
2022/04/21 17:44:47;;;;;;;;;;;21.50;29.80;;;;;;8332212;28;20289;-45
2022/04/21 17:48:47;;;;;;;;;;;21.50;29.90;;;;;;8335318;28;19918;-45
2022/04/21 17:52:48;;;;;;;;;;;21.50;29.90;;;;;;8335033;28;19914;-47
2022/04/21 17:56:48;;;;;;;;;;;21.50;29.90;;;;;;8334965;28;19913;-46
2022/04/21 18:00:48;;;;;;;;;;;21.50;29.90;;;;;;8335076;28;19921;-46
2022/04/21 18:04:49;;;;;;;;;;;21.40;29.90;;;;;;8334729;28;20366;-45
2022/04/21 18:08:50;;;;;;;;;;;21.40;29.90;;;;;;8334157;28;20385;-45
2022/04/21 18:12:50;;;;;;;;;;;21.40;29.90;;;;;;8334831;28;19913;-45
2022/04/21 18:16:51;;;;;;;;;;;21.40;29.90;;;;;;8334606;28;19940;-45
2022/04/21 18:20:51;;;;;;;;;;;21.40;29.90;;;;;;8333962;28;20268;-46
2022/04/21 18:24:51;;;;;;;;;;;21.40;29.90;;;;;;8334281;28;19971;-46
2022/04/21 18:28:52;;;;;;;;;;;21.40;29.90;;;;;;8334240;28;20388;-52
2022/04/21 18:32:52;;;;;;;;;;;21.40;29.90;;;;;;8333282;28;19920;-44
2022/04/21 18:36:53;;;;;;;;;;;21.40;29.90;;;;;;8334059;28;20367;-44
2022/04/21 18:40:54;;;;;;;;;;;21.40;30.00;;;;;;8333652;28;20371;-45
2022/04/21 18:44:55;;;;;;;;;;;21.40;29.90;;;;;;8333299;28;20362;-45
2022/04/21 18:48:56;;;;;;;;;;;21.40;29.90;;;;;;8333778;28;20382;-45
2022/04/21 18:52:56;;;;;;;;;;;21.40;29.90;;;;;;8333594;28;19917;-44
2022/04/21 18:56:57;;;;;;;;;;;21.40;29.90;;;;;;8315129;28;19913;-46
2022/04/21 19:00:59;;;;;;;;;;;21.40;29.90;;;;;;8333482;28;20366;-45
2022/04/21 19:04:59;;;;;;;;;;;21.30;29.90;;;;;;8349304;28;19927;-44
2022/04/21 19:13:18;;;;;;;;;;;21.30;29.90;;;;;;8368708;28;20280;-46
2022/04/21 19:17:20;;;;;;;;;;;21.30;29.90;;;;;;8365962;28;19912;-48
2022/04/21 19:21:35;;;;;;;;;;;21.30;29.90;;;;;;8365015;28;19918;-47
2022/04/21 19:25:37;;;;;;;;;;;21.30;29.90;;;;;;8365324;28;20012;-47
2022/04/21 19:29:40;;;;;;;;;;;21.30;30.00;;;;;;8364872;28;20266;-45
2022/04/21 19:33:42;;;;;;;;;;;21.30;29.90;;;;;;8364979;28;19925;-44
2022/04/21 19:37:42;;;;;;;;;;;21.30;30.00;;;;;;8365376;28;20439;-45
2022/04/21 19:41:43;;;;;;;;;;;21.30;30.00;;;;;;8364419;28;19916;-44
2022/04/21 19:45:43;;;;;;;;;;;21.30;30.00;;;;;;8364428;28;19917;-44
2022/04/21 19:49:43;;;;;;;;;;;21.30;30.00;;;;;;8365006;28;19964;-44
2022/04/21 19:53:44;;;;;;;;;;;21.30;30.00;;;;;;8363946;28;20066;-46
2022/04/21 19:57:44;;;;;;;;;;;21.30;30.00;;;;;;8364707;28;19920;-46
2022/04/21 20:01:45;;;;;;;;;;;21.30;30.00;;;;;;8364492;28;19961;-45
2022/04/21 20:10:12;;;;;;;;;;;21.30;30.00;;;;;;8333267;28;19924;-45
2022/04/21 20:14:13;;;;;;;;;;;21.20;30.00;;;;;;8363988;28;19924;-45
2022/04/21 20:18:13;;;;;;;;;;;21.20;29.90;;;;;;8363374;28;20366;-46
2022/04/21 20:22:14;;;;;;;;;;;21.20;30.00;;;;;;8363782;28;19917;-45
2022/04/21 20:30:33;;;;;;;;;;;21.20;30.00;;;;;;8363155;28;19923;-45
2022/04/21 20:34:34;;;;;;;;;;;21.20;30.00;;;;;;8363774;28;19925;-46
2022/04/21 20:38:40;;;;;;;;;;;21.20;30.00;;;;;;8362935;28;19975;-46
2022/04/21 20:42:41;;;;;;;;;;;21.20;30.00;;;;;;8363311;28;19917;-45
2022/04/21 20:46:42;;;;;;;;;;;21.20;30.00;;;;;;8363399;28;20019;-46
2022/04/21 20:50:42;;;;;;;;;;;21.20;30.00;;;;;;8362611;28;19936;-45
2022/04/21 20:54:43;;;;;;;;;;;21.20;30.00;;;;;;8362960;28;20370;-45
2022/04/21 20:58:43;;;;;;;;;;;21.20;30.00;;;;;;8363300;28;20004;-47
2022/04/21 21:02:43;;;;;;;;;;;21.20;30.00;;;;;;8362305;28;19917;-45
2022/04/21 21:11:03;;;;;;;;;;;21.20;30.00;;;;;;8366555;28;19963;-46
2022/04/21 21:15:06;;;;;;;;;;;21.20;30.00;;;;;;8362221;28;20346;-46
2022/04/21 21:19:07;;;;;;;;;;;21.20;30.00;;;;;;8365533;28;20373;-45
2022/04/21 21:23:07;;;;;;;;;;;21.20;30.10;;;;;;8369435;28;19920;-46
2022/04/21 21:27:08;;;;;;;;;;;21.20;30.10;;;;;;8368569;28;19959;-45
2022/04/21 21:31:09;;;;;;;;;;;21.20;30.00;;;;;;8369114;28;19923;-46
2022/04/21 21:35:10;;;;;;;;;;;21.20;30.00;;;;;;8368767;28;19925;-45
2022/04/21 21:39:11;;;;;;;;;;;21.20;30.00;;;;;;8368253;28;20284;-45
2022/04/21 21:43:11;;;;;;;;;;;21.10;30.00;;;;;;8369062;28;20039;-45
2022/04/21 21:47:12;;;;;;;;;;;21.20;30.00;;;;;;8368569;28;19921;-46
2022/04/21 21:55:32;;;;;;;;;;;21.20;30.00;;;;;;8373675;28;20388;-47
2022/04/21 21:59:32;;;;;;;;;;;21.10;29.90;;;;;;8367896;28;19939;-44
2022/04/21 22:03:33;;;;;;;;;;;21.10;29.90;;;;;;8367258;28;20005;-47
2022/04/21 22:07:33;;;;;;;;;;;21.10;30.00;;;;;;8366560;28;19923;-45
2022/04/21 22:11:34;;;;;;;;;;;21.10;30.00;;;;;;8367129;28;19916;-44
2022/04/21 22:15:35;;;;;;;;;;;21.10;29.90;;;;;;8367776;28;20290;-45
2022/04/21 22:19:36;;;;;;;;;;;21.10;30.00;;;;;;8367339;28;19912;-45
2022/04/21 22:23:36;;;;;;;;;;;21.10;29.90;;;;;;8367199;28;20358;-45
2022/04/21 22:27:37;;;;;;;;;;;21.10;29.90;;;;;;8368080;28;19921;-44
2022/04/21 22:31:37;;;;;;;;;;;21.10;29.90;;;;;;8369231;28;19917;-45
2022/04/21 22:35:37;;;;;;;;;;;21.10;29.90;;;;;;8367224;28;19978;-44
2022/04/21 22:39:38;;;;;;;;;;;21.00;29.90;;;;;;8367398;28;19913;-44
2022/04/21 22:43:40;;;;;;;;;;;21.00;29.90;;;;;;8367536;28;19951;-44
2022/04/21 22:47:40;;;;;;;;;;;21.00;29.90;;;;;;8367643;28;19924;-44
2022/04/21 22:51:41;;;;;;;;;;;21.00;29.90;;;;;;8366915;28;19924;-44
2022/04/21 22:55:41;;;;;;;;;;;21.00;29.90;;;;;;8366594;28;19929;-46
2022/04/21 22:59:42;;;;;;;;;;;21.00;30.00;;;;;;8366066;28;19913;-44
2022/04/21 23:03:42;;;;;;;;;;;21.00;30.00;;;;;;8366290;28;19960;-46
2022/04/21 23:07:43;;;;;;;;;;;21.00;30.00;;;;;;8366190;28;19916;-44
2022/04/21 23:16:05;;;;;;;;;;;20.90;30.00;;;;;;8365756;28;19932;-43
2022/04/21 23:20:06;;;;;;;;;;;20.90;30.00;;;;;;8365716;28;19975;-44
2022/04/21 23:24:06;;;;;;;;;;;20.90;30.00;;;;;;8365230;28;20523;-45
2022/04/21 23:28:07;;;;;;;;;;;20.90;30.00;;;;;;8365418;28;19920;-45
2022/04/21 23:32:08;;;;;;;;;;;20.90;30.00;;;;;;8365272;28;19920;-46
2022/04/21 23:36:08;;;;;;;;;;;20.90;30.00;;;;;;8364401;28;19947;-45
2022/04/21 23:40:09;;;;;;;;;;;20.90;30.00;;;;;;8364973;28;20373;-46
2022/04/21 23:44:13;;;;;;;;;;;20.80;30.00;;;;;;8364420;28;19917;-44
2022/04/21 23:48:14;;;;;;;;;;;20.90;30.00;;;;;;8364060;28;19924;-44
2022/04/21 23:52:14;;;;;;;;;;;20.80;30.00;;;;;;8364476;28;19963;-44
2022/04/21 23:56:14;;;;;;;;;;;20.80;30.00;;;;;;8364293;28;19978;-44
